OIAW  Ahwaz  Airport

Ahwaz, Iran

Add Bookmark
Status IATA
Operational AWZ
Latitude Longitude
31° 20' 14" N 48° 45' 43" E
31.337400 48.762001
Local (DST + 5) UTC (GMT + 4)
Mar 7, 2015 05:06 Mar 7, 2015 01:36
Sunrise-Sunset Local UTC
Begin Civil Twilight 06:09 02:39
Sunrise 06:33 03:03
Sunset 06:18 14:48
End Civil Twilight 06:42 15:12

Current Weather

METAR Observed VFR
OIAW 070100Z 31006KT CAVOK 14/M03 Q1018 Sat, Mar 7, 2015 @ 01:00 UTC
(36 Minutes ago)
Visual Flight Rules
Wind Visibility Clouds Conditions
310° at 6 knots (11 kph) 10 km or more
  • Clear skies
  • No significant weather
Temperatures Readings Precipitation
Current Temp 14°C (57°F)
Dewpoint -3°C (27°F)
Humidity 31%
Altimeter 30.06"Hg
Sea Level Pressure 1018mb
Field Elevation 72.18'
None Recorded

Forecast Weather

TAF
TAF OIAW 062300Z 0700/0806 32005MPS 7000 SKC
From To
Sat, Mar 7, 2015 @ 00:00 UTC Sun, Mar 8, 2015 @ 06:00 UTC
Wind Visibility Clouds Conditions
320° at 10 knots (19 kph) 7000 meters
  • Clear skies
  • No significant weather

24 Hour Weather History

Loading
-

24 Hour Weather Graphs

Loading
-

CheckWX.com is intended as a tool to help pilots better visualize weather data. It is not intended as a substitute for an official weather briefing obtained from a Flight Service Station. CheckWX.com does not meet the FAA requirements for an official pre-flight weather briefing. Therefore, it's important that pilots still call and obtain an official FSS pre-flight weather briefing.